sensor_id;sensor_type;location;lat;lon;timestamp;P1;durP1;ratioP1;P2;durP2;ratioP2
73154;SDS011;61364;52.418;7.382;2022-09-12T00:01:21;8.48;;;8.48;;
73154;SDS011;61364;52.418;7.382;2022-09-12T00:03:53;9.05;;;9.05;;
73154;SDS011;61364;52.418;7.382;2022-09-12T00:06:22;9.02;;;9.02;;
73154;SDS011;61364;52.418;7.382;2022-09-12T00:08:49;9.12;;;9.12;;
73154;SDS011;61364;52.418;7.382;2022-09-12T00:11:14;9.24;;;9.24;;
73154;SDS011;61364;52.418;7.382;2022-09-12T00:13:40;8.64;;;8.64;;
73154;SDS011;61364;52.418;7.382;2022-09-12T00:16:07;8.67;;;8.67;;
73154;SDS011;61364;52.418;7.382;2022-09-12T00:18:39;8.73;;;8.73;;
73154;SDS011;61364;52.418;7.382;2022-09-12T00:21:04;9.17;;;9.17;;
73154;SDS011;61364;52.418;7.382;2022-09-12T00:23:30;9.54;;;9.54;;
73154;SDS011;61364;52.418;7.382;2022-09-12T00:25:57;9.38;;;9.38;;
73154;SDS011;61364;52.418;7.382;2022-09-12T00:28:23;9.01;;;9.01;;
73154;SDS011;61364;52.418;7.382;2022-09-12T00:30:49;9.35;;;9.35;;
73154;SDS011;61364;52.418;7.382;2022-09-12T00:33:15;9.88;;;9.88;;
73154;SDS011;61364;52.418;7.382;2022-09-12T00:38:08;8.85;;;8.85;;
73154;SDS011;61364;52.418;7.382;2022-09-12T00:40:34;9.38;;;9.38;;
73154;SDS011;61364;52.418;7.382;2022-09-12T00:43:00;9.58;;;9.58;;
73154;SDS011;61364;52.418;7.382;2022-09-12T00:45:28;9.35;;;9.35;;
73154;SDS011;61364;52.418;7.382;2022-09-12T00:47:54;9.26;;;9.26;;
73154;SDS011;61364;52.418;7.382;2022-09-12T00:50:23;9.78;;;9.78;;
73154;SDS011;61364;52.418;7.382;2022-09-12T00:52:54;8.91;;;8.91;;
73154;SDS011;61364;52.418;7.382;2022-09-12T00:55:36;9.58;;;9.58;;
73154;SDS011;61364;52.418;7.382;2022-09-12T00:58:23;9.51;;;9.51;;
73154;SDS011;61364;52.418;7.382;2022-09-12T01:00:52;9.69;;;9.69;;
73154;SDS011;61364;52.418;7.382;2022-09-12T01:03:18;9.35;;;9.35;;
73154;SDS011;61364;52.418;7.382;2022-09-12T01:05:48;9.46;;;9.46;;
73154;SDS011;61364;52.418;7.382;2022-09-12T01:08:20;9.27;;;9.27;;
73154;SDS011;61364;52.418;7.382;2022-09-12T01:10:47;9.37;;;9.37;;
73154;SDS011;61364;52.418;7.382;2022-09-12T01:13:13;9.41;;;9.41;;
73154;SDS011;61364;52.418;7.382;2022-09-12T01:15:39;8.77;;;8.77;;
73154;SDS011;61364;52.418;7.382;2022-09-12T01:18:20;8.54;;;8.54;;
73154;SDS011;61364;52.418;7.382;2022-09-12T01:26:02;9.74;;;9.74;;
73154;SDS011;61364;52.418;7.382;2022-09-12T01:31:05;9.52;;;9.52;;
73154;SDS011;61364;52.418;7.382;2022-09-12T01:38:56;9.16;;;9.16;;
73154;SDS011;61364;52.418;7.382;2022-09-12T01:41:29;9.88;;;9.88;;
73154;SDS011;61364;52.418;7.382;2022-09-12T01:44:01;9.93;;;9.93;;
73154;SDS011;61364;52.418;7.382;2022-09-12T01:51:41;9.74;;;9.74;;
73154;SDS011;61364;52.418;7.382;2022-09-12T01:54:15;10.00;;;10.00;;
73154;SDS011;61364;52.418;7.382;2022-09-12T01:56:45;10.27;;;10.27;;
73154;SDS011;61364;52.418;7.382;2022-09-12T01:59:15;9.36;;;9.36;;
73154;SDS011;61364;52.418;7.382;2022-09-12T02:01:55;9.64;;;9.64;;
73154;SDS011;61364;52.418;7.382;2022-09-12T02:04:27;10.43;;;10.43;;
73154;SDS011;61364;52.418;7.382;2022-09-12T02:09:47;10.86;;;10.86;;
73154;SDS011;61364;52.418;7.382;2022-09-12T02:12:11;10.74;;;10.74;;
73154;SDS011;61364;52.418;7.382;2022-09-12T02:14:41;10.54;;;10.54;;
73154;SDS011;61364;52.418;7.382;2022-09-12T02:17:12;10.69;;;10.69;;
73154;SDS011;61364;52.418;7.382;2022-09-12T02:20:00;12.02;;;12.02;;
73154;SDS011;61364;52.418;7.382;2022-09-12T02:22:25;12.17;;;12.17;;
73154;SDS011;61364;52.418;7.382;2022-09-12T02:24:54;12.53;;;12.53;;
73154;SDS011;61364;52.418;7.382;2022-09-12T02:27:41;11.54;;;11.54;;
73154;SDS011;61364;52.418;7.382;2022-09-12T02:30:10;11.20;;;11.20;;
73154;SDS011;61364;52.418;7.382;2022-09-12T02:35:40;11.61;;;11.61;;
73154;SDS011;61364;52.418;7.382;2022-09-12T02:38:27;11.84;;;11.84;;
73154;SDS011;61364;52.418;7.382;2022-09-12T02:40:58;11.78;;;11.75;;
73154;SDS011;61364;52.418;7.382;2022-09-12T02:43:24;11.69;;;11.69;;
73154;SDS011;61364;52.418;7.382;2022-09-12T02:45:50;11.98;;;11.98;;
73154;SDS011;61364;52.418;7.382;2022-09-12T02:48:17;13.07;;;13.07;;
73154;SDS011;61364;52.418;7.382;2022-09-12T02:50:46;13.14;;;13.14;;
73154;SDS011;61364;52.418;7.382;2022-09-12T02:53:11;13.11;;;13.11;;
73154;SDS011;61364;52.418;7.382;2022-09-12T02:55:37;12.38;;;12.38;;
73154;SDS011;61364;52.418;7.382;2022-09-12T02:58:05;13.71;;;13.71;;
73154;SDS011;61364;52.418;7.382;2022-09-12T03:00:35;14.14;;;14.14;;
73154;SDS011;61364;52.418;7.382;2022-09-12T03:06:13;15.59;;;15.31;;
73154;SDS011;61364;52.418;7.382;2022-09-12T03:11:12;16.81;;;16.59;;
73154;SDS011;61364;52.418;7.382;2022-09-12T03:18:41;14.17;;;14.17;;
73154;SDS011;61364;52.418;7.382;2022-09-12T03:21:12;12.85;;;12.85;;
73154;SDS011;61364;52.418;7.382;2022-09-12T03:24:31;12.77;;;12.77;;
73154;SDS011;61364;52.418;7.382;2022-09-12T03:29:00;14.77;;;14.60;;
73154;SDS011;61364;52.418;7.382;2022-09-12T03:31:29;14.37;;;14.36;;
73154;SDS011;61364;52.418;7.382;2022-09-12T03:33:56;13.44;;;13.44;;
73154;SDS011;61364;52.418;7.382;2022-09-12T03:36:24;14.92;;;14.85;;
73154;SDS011;61364;52.418;7.382;2022-09-12T03:38:51;14.28;;;14.10;;
73154;SDS011;61364;52.418;7.382;2022-09-12T03:41:16;13.72;;;13.47;;
73154;SDS011;61364;52.418;7.382;2022-09-12T03:43:42;13.18;;;13.17;;
73154;SDS011;61364;52.418;7.382;2022-09-12T03:46:08;13.87;;;13.87;;
73154;SDS011;61364;52.418;7.382;2022-09-12T03:48:34;13.79;;;13.79;;
73154;SDS011;61364;52.418;7.382;2022-09-12T03:51:00;15.76;;;15.47;;
73154;SDS011;61364;52.418;7.382;2022-09-12T03:53:27;15.27;;;15.27;;
73154;SDS011;61364;52.418;7.382;2022-09-12T03:55:52;13.78;;;13.77;;
73154;SDS011;61364;52.418;7.382;2022-09-12T03:58:17;12.88;;;12.88;;
73154;SDS011;61364;52.418;7.382;2022-09-12T04:00:43;13.14;;;13.12;;
73154;SDS011;61364;52.418;7.382;2022-09-12T04:03:09;14.20;;;14.20;;
73154;SDS011;61364;52.418;7.382;2022-09-12T04:05:34;14.53;;;14.52;;
73154;SDS011;61364;52.418;7.382;2022-09-12T04:08:00;14.94;;;14.88;;
73154;SDS011;61364;52.418;7.382;2022-09-12T04:10:26;15.05;;;14.87;;
73154;SDS011;61364;52.418;7.382;2022-09-12T04:12:51;14.22;;;14.19;;
73154;SDS011;61364;52.418;7.382;2022-09-12T04:15:17;15.24;;;14.84;;
73154;SDS011;61364;52.418;7.382;2022-09-12T04:17:42;14.17;;;14.11;;
73154;SDS011;61364;52.418;7.382;2022-09-12T04:20:09;14.19;;;14.07;;
73154;SDS011;61364;52.418;7.382;2022-09-12T04:22:35;13.66;;;13.52;;
73154;SDS011;61364;52.418;7.382;2022-09-12T04:25:01;13.72;;;13.69;;
73154;SDS011;61364;52.418;7.382;2022-09-12T04:27:26;14.64;;;14.64;;
73154;SDS011;61364;52.418;7.382;2022-09-12T04:29:52;14.60;;;14.54;;
73154;SDS011;61364;52.418;7.382;2022-09-12T04:32:19;15.35;;;15.25;;
73154;SDS011;61364;52.418;7.382;2022-09-12T04:34:46;15.85;;;15.39;;
73154;SDS011;61364;52.418;7.382;2022-09-12T04:37:12;14.35;;;14.34;;
73154;SDS011;61364;52.418;7.382;2022-09-12T04:39:37;13.48;;;13.43;;
73154;SDS011;61364;52.418;7.382;2022-09-12T04:42:03;13.82;;;13.67;;
73154;SDS011;61364;52.418;7.382;2022-09-12T04:44:29;13.26;;;13.25;;
73154;SDS011;61364;52.418;7.382;2022-09-12T04:46:55;13.22;;;13.22;;
73154;SDS011;61364;52.418;7.382;2022-09-12T04:49:21;13.18;;;13.14;;
73154;SDS011;61364;52.418;7.382;2022-09-12T04:51:47;13.86;;;13.85;;
73154;SDS011;61364;52.418;7.382;2022-09-12T04:54:14;14.11;;;14.06;;
73154;SDS011;61364;52.418;7.382;2022-09-12T04:56:42;14.21;;;13.95;;
73154;SDS011;61364;52.418;7.382;2022-09-12T04:59:09;14.12;;;14.03;;
73154;SDS011;61364;52.418;7.382;2022-09-12T05:01:35;14.26;;;14.16;;
73154;SDS011;61364;52.418;7.382;2022-09-12T05:04:02;13.69;;;13.61;;
73154;SDS011;61364;52.418;7.382;2022-09-12T05:06:29;13.38;;;13.38;;
73154;SDS011;61364;52.418;7.382;2022-09-12T05:08:56;13.56;;;13.50;;
73154;SDS011;61364;52.418;7.382;2022-09-12T05:11:24;14.16;;;14.01;;
73154;SDS011;61364;52.418;7.382;2022-09-12T05:13:50;14.07;;;13.96;;
73154;SDS011;61364;52.418;7.382;2022-09-12T05:16:16;14.77;;;14.65;;
73154;SDS011;61364;52.418;7.382;2022-09-12T05:18:43;14.72;;;14.67;;
73154;SDS011;61364;52.418;7.382;2022-09-12T05:21:10;15.01;;;14.86;;
73154;SDS011;61364;52.418;7.382;2022-09-12T05:23:37;15.69;;;15.68;;
73154;SDS011;61364;52.418;7.382;2022-09-12T05:26:03;16.37;;;16.12;;
73154;SDS011;61364;52.418;7.382;2022-09-12T05:28:34;16.17;;;16.16;;
73154;SDS011;61364;52.418;7.382;2022-09-12T05:31:00;16.64;;;16.52;;
73154;SDS011;61364;52.418;7.382;2022-09-12T05:33:28;18.16;;;17.72;;
73154;SDS011;61364;52.418;7.382;2022-09-12T05:35:54;18.42;;;18.10;;
73154;SDS011;61364;52.418;7.382;2022-09-12T05:38:20;23.85;;;23.43;;
73154;SDS011;61364;52.418;7.382;2022-09-12T05:40:45;23.27;;;22.83;;
73154;SDS011;61364;52.418;7.382;2022-09-12T05:43:10;22.62;;;22.22;;
73154;SDS011;61364;52.418;7.382;2022-09-12T05:45:37;22.62;;;22.19;;
73154;SDS011;61364;52.418;7.382;2022-09-12T05:48:03;23.48;;;23.30;;
73154;SDS011;61364;52.418;7.382;2022-09-12T05:50:28;25.05;;;24.63;;
73154;SDS011;61364;52.418;7.382;2022-09-12T05:52:55;25.89;;;25.41;;
73154;SDS011;61364;52.418;7.382;2022-09-12T05:55:21;25.38;;;25.01;;
73154;SDS011;61364;52.418;7.382;2022-09-12T05:57:47;22.92;;;22.65;;
73154;SDS011;61364;52.418;7.382;2022-09-12T06:00:13;23.04;;;22.71;;
73154;SDS011;61364;52.418;7.382;2022-09-12T06:02:39;23.19;;;22.93;;
73154;SDS011;61364;52.418;7.382;2022-09-12T06:05:05;23.59;;;23.13;;
73154;SDS011;61364;52.418;7.382;2022-09-12T06:07:30;23.50;;;23.26;;
73154;SDS011;61364;52.418;7.382;2022-09-12T06:09:57;24.96;;;24.39;;
73154;SDS011;61364;52.418;7.382;2022-09-12T06:12:24;24.76;;;24.38;;
73154;SDS011;61364;52.418;7.382;2022-09-12T06:14:51;24.22;;;23.99;;
73154;SDS011;61364;52.418;7.382;2022-09-12T06:17:16;26.12;;;25.87;;
73154;SDS011;61364;52.418;7.382;2022-09-12T06:19:43;25.90;;;25.65;;
73154;SDS011;61364;52.418;7.382;2022-09-12T06:22:09;25.04;;;24.81;;
73154;SDS011;61364;52.418;7.382;2022-09-12T06:24:35;25.56;;;25.18;;
73154;SDS011;61364;52.418;7.382;2022-09-12T06:27:01;26.17;;;25.54;;
73154;SDS011;61364;52.418;7.382;2022-09-12T06:29:27;25.59;;;24.93;;
73154;SDS011;61364;52.418;7.382;2022-09-12T06:31:52;24.24;;;24.02;;
73154;SDS011;61364;52.418;7.382;2022-09-12T06:34:18;24.47;;;24.25;;
73154;SDS011;61364;52.418;7.382;2022-09-12T06:36:45;23.47;;;23.20;;
73154;SDS011;61364;52.418;7.382;2022-09-12T06:39:15;23.12;;;22.78;;
73154;SDS011;61364;52.418;7.382;2022-09-12T06:41:42;22.42;;;21.94;;
73154;SDS011;61364;52.418;7.382;2022-09-12T06:44:10;22.62;;;22.46;;
73154;SDS011;61364;52.418;7.382;2022-09-12T06:46:36;22.41;;;22.14;;
73154;SDS011;61364;52.418;7.382;2022-09-12T06:49:02;22.97;;;22.71;;
73154;SDS011;61364;52.418;7.382;2022-09-12T06:51:28;23.65;;;23.10;;
73154;SDS011;61364;52.418;7.382;2022-09-12T06:53:54;21.96;;;21.61;;
73154;SDS011;61364;52.418;7.382;2022-09-12T06:56:21;21.20;;;21.18;;
73154;SDS011;61364;52.418;7.382;2022-09-12T06:58:48;20.74;;;20.47;;
73154;SDS011;61364;52.418;7.382;2022-09-12T07:01:15;20.31;;;20.01;;
73154;SDS011;61364;52.418;7.382;2022-09-12T07:03:44;20.27;;;19.86;;
73154;SDS011;61364;52.418;7.382;2022-09-12T07:06:13;18.86;;;18.68;;
73154;SDS011;61364;52.418;7.382;2022-09-12T07:08:40;19.07;;;18.90;;
73154;SDS011;61364;52.418;7.382;2022-09-12T07:11:07;19.00;;;18.77;;
73154;SDS011;61364;52.418;7.382;2022-09-12T07:13:34;18.44;;;18.22;;
73154;SDS011;61364;52.418;7.382;2022-09-12T07:16:00;18.88;;;18.51;;
73154;SDS011;61364;52.418;7.382;2022-09-12T07:18:27;18.19;;;17.94;;
73154;SDS011;61364;52.418;7.382;2022-09-12T07:20:53;17.45;;;17.24;;
73154;SDS011;61364;52.418;7.382;2022-09-12T07:23:19;17.22;;;17.03;;
73154;SDS011;61364;52.418;7.382;2022-09-12T07:25:51;17.38;;;17.16;;
73154;SDS011;61364;52.418;7.382;2022-09-12T07:28:18;17.39;;;17.10;;
73154;SDS011;61364;52.418;7.382;2022-09-12T07:30:44;17.35;;;17.16;;
73154;SDS011;61364;52.418;7.382;2022-09-12T07:33:09;17.69;;;17.60;;
73154;SDS011;61364;52.418;7.382;2022-09-12T07:35:35;16.38;;;16.17;;
73154;SDS011;61364;52.418;7.382;2022-09-12T07:38:01;16.90;;;16.87;;
73154;SDS011;61364;52.418;7.382;2022-09-12T07:40:27;19.62;;;19.52;;
73154;SDS011;61364;52.418;7.382;2022-09-12T07:42:53;16.18;;;16.13;;
73154;SDS011;61364;52.418;7.382;2022-09-12T07:45:19;16.03;;;16.01;;
73154;SDS011;61364;52.418;7.382;2022-09-12T07:47:44;16.61;;;16.46;;
73154;SDS011;61364;52.418;7.382;2022-09-12T07:50:10;16.16;;;16.08;;
73154;SDS011;61364;52.418;7.382;2022-09-12T07:52:36;15.46;;;15.40;;
73154;SDS011;61364;52.418;7.382;2022-09-12T07:55:02;15.87;;;15.85;;
73154;SDS011;61364;52.418;7.382;2022-09-12T07:57:27;15.68;;;15.68;;
73154;SDS011;61364;52.418;7.382;2022-09-12T07:59:53;15.34;;;15.30;;
73154;SDS011;61364;52.418;7.382;2022-09-12T08:02:18;15.90;;;15.88;;
73154;SDS011;61364;52.418;7.382;2022-09-12T08:04:45;15.22;;;15.21;;
73154;SDS011;61364;52.418;7.382;2022-09-12T08:07:11;15.57;;;15.49;;
73154;SDS011;61364;52.418;7.382;2022-09-12T08:09:37;16.45;;;16.18;;
73154;SDS011;61364;52.418;7.382;2022-09-12T08:12:02;15.46;;;15.19;;
73154;SDS011;61364;52.418;7.382;2022-09-12T08:14:28;16.02;;;15.83;;
73154;SDS011;61364;52.418;7.382;2022-09-12T08:16:54;15.64;;;15.55;;
73154;SDS011;61364;52.418;7.382;2022-09-12T08:19:19;14.48;;;14.42;;
73154;SDS011;61364;52.418;7.382;2022-09-12T08:21:46;15.03;;;14.94;;
73154;SDS011;61364;52.418;7.382;2022-09-12T08:24:12;15.31;;;15.07;;
73154;SDS011;61364;52.418;7.382;2022-09-12T08:26:37;14.84;;;14.74;;
73154;SDS011;61364;52.418;7.382;2022-09-12T08:29:03;14.23;;;14.09;;
73154;SDS011;61364;52.418;7.382;2022-09-12T08:31:29;13.83;;;13.62;;
73154;SDS011;61364;52.418;7.382;2022-09-12T08:34:04;14.32;;;14.32;;
73154;SDS011;61364;52.418;7.382;2022-09-12T08:36:30;14.13;;;14.10;;
73154;SDS011;61364;52.418;7.382;2022-09-12T08:38:57;14.39;;;14.39;;
73154;SDS011;61364;52.418;7.382;2022-09-12T08:43:56;14.56;;;14.55;;
73154;SDS011;61364;52.418;7.382;2022-09-12T08:46:46;13.78;;;13.78;;
73154;SDS011;61364;52.418;7.382;2022-09-12T08:49:59;14.56;;;14.48;;
73154;SDS011;61364;52.418;7.382;2022-09-12T08:52:09;13.72;;;13.71;;
73154;SDS011;61364;52.418;7.382;2022-09-12T08:54:38;13.62;;;13.57;;
73154;SDS011;61364;52.418;7.382;2022-09-12T08:57:04;13.30;;;13.26;;
73154;SDS011;61364;52.418;7.382;2022-09-12T08:59:37;13.52;;;13.43;;
73154;SDS011;61364;52.418;7.382;2022-09-12T09:02:29;14.09;;;14.00;;
73154;SDS011;61364;52.418;7.382;2022-09-12T09:04:51;13.90;;;13.83;;
73154;SDS011;61364;52.418;7.382;2022-09-12T09:17:53;12.90;;;12.90;;
73154;SDS011;61364;52.418;7.382;2022-09-12T09:20:29;13.42;;;13.31;;
73154;SDS011;61364;52.418;7.382;2022-09-12T09:23:01;13.60;;;13.49;;
73154;SDS011;61364;52.418;7.382;2022-09-12T09:28:05;12.92;;;12.90;;
73154;SDS011;61364;52.418;7.382;2022-09-12T09:30:37;13.42;;;13.42;;
73154;SDS011;61364;52.418;7.382;2022-09-12T09:33:08;13.53;;;13.44;;
73154;SDS011;61364;52.418;7.382;2022-09-12T09:38:21;13.07;;;13.01;;
73154;SDS011;61364;52.418;7.382;2022-09-12T09:43:20;12.80;;;12.80;;
73154;SDS011;61364;52.418;7.382;2022-09-12T09:45:51;12.54;;;12.53;;
73154;SDS011;61364;52.418;7.382;2022-09-12T09:48:27;13.12;;;13.07;;
73154;SDS011;61364;52.418;7.382;2022-09-12T09:50:55;13.16;;;13.15;;
73154;SDS011;61364;52.418;7.382;2022-09-12T09:53:44;13.48;;;13.46;;
73154;SDS011;61364;52.418;7.382;2022-09-12T09:58:43;12.66;;;12.66;;
73154;SDS011;61364;52.418;7.382;2022-09-12T10:01:18;12.66;;;12.66;;
73154;SDS011;61364;52.418;7.382;2022-09-12T10:03:48;13.81;;;13.66;;
73154;SDS011;61364;52.418;7.382;2022-09-12T10:08:44;12.20;;;12.20;;
73154;SDS011;61364;52.418;7.382;2022-09-12T10:11:19;12.17;;;12.17;;
73154;SDS011;61364;52.418;7.382;2022-09-12T10:16:32;12.04;;;12.04;;
73154;SDS011;61364;52.418;7.382;2022-09-12T10:18:59;11.84;;;11.84;;
73154;SDS011;61364;52.418;7.382;2022-09-12T10:21:27;11.68;;;11.68;;
73154;SDS011;61364;52.418;7.382;2022-09-12T10:23:59;12.51;;;12.41;;
73154;SDS011;61364;52.418;7.382;2022-09-12T10:26:30;12.45;;;12.31;;
73154;SDS011;61364;52.418;7.382;2022-09-12T10:29:01;12.60;;;12.54;;
73154;SDS011;61364;52.418;7.382;2022-09-12T10:31:43;12.57;;;12.57;;
73154;SDS011;61364;52.418;7.382;2022-09-12T10:36:45;11.76;;;11.76;;
73154;SDS011;61364;52.418;7.382;2022-09-12T10:39:16;11.86;;;11.86;;
73154;SDS011;61364;52.418;7.382;2022-09-12T10:41:43;12.52;;;12.46;;
73154;SDS011;61364;52.418;7.382;2022-09-12T10:44:18;12.63;;;12.62;;
73154;SDS011;61364;52.418;7.382;2022-09-12T10:46:50;12.10;;;11.90;;
73154;SDS011;61364;52.418;7.382;2022-09-12T10:51:51;13.07;;;12.79;;
73154;SDS011;61364;52.418;7.382;2022-09-12T10:54:19;12.43;;;12.27;;
73154;SDS011;61364;52.418;7.382;2022-09-12T11:04:45;11.77;;;11.62;;
73154;SDS011;61364;52.418;7.382;2022-09-12T11:10:06;11.80;;;11.74;;
73154;SDS011;61364;52.418;7.382;2022-09-12T11:15:33;10.94;;;10.88;;
73154;SDS011;61364;52.418;7.382;2022-09-12T11:18:13;10.79;;;10.64;;
73154;SDS011;61364;52.418;7.382;2022-09-12T11:23:39;9.45;;;9.45;;
73154;SDS011;61364;52.418;7.382;2022-09-12T11:26:37;9.53;;;9.53;;
73154;SDS011;61364;52.418;7.382;2022-09-12T11:34:08;9.49;;;9.47;;
73154;SDS011;61364;52.418;7.382;2022-09-12T11:39:00;8.99;;;8.82;;
73154;SDS011;61364;52.418;7.382;2022-09-12T11:41:32;8.78;;;8.56;;
73154;SDS011;61364;52.418;7.382;2022-09-12T11:46:47;9.13;;;9.11;;
73154;SDS011;61364;52.418;7.382;2022-09-12T11:51:52;8.64;;;8.64;;
73154;SDS011;61364;52.418;7.382;2022-09-12T11:54:25;8.04;;;8.04;;
73154;SDS011;61364;52.418;7.382;2022-09-12T11:56:58;8.12;;;8.12;;
73154;SDS011;61364;52.418;7.382;2022-09-12T12:01:54;8.04;;;8.04;;
73154;SDS011;61364;52.418;7.382;2022-09-12T12:04:24;7.52;;;7.52;;
73154;SDS011;61364;52.418;7.382;2022-09-12T12:06:56;7.83;;;7.83;;
73154;SDS011;61364;52.418;7.382;2022-09-12T12:09:27;7.74;;;7.74;;
73154;SDS011;61364;52.418;7.382;2022-09-12T12:11:54;7.77;;;7.65;;
73154;SDS011;61364;52.418;7.382;2022-09-12T12:14:24;7.22;;;7.22;;
73154;SDS011;61364;52.418;7.382;2022-09-12T12:16:54;7.36;;;7.36;;
73154;SDS011;61364;52.418;7.382;2022-09-12T12:21:46;7.38;;;7.38;;
73154;SDS011;61364;52.418;7.382;2022-09-12T12:24:14;7.07;;;7.07;;
73154;SDS011;61364;52.418;7.382;2022-09-12T12:26:42;6.89;;;6.89;;
73154;SDS011;61364;52.418;7.382;2022-09-12T12:29:11;7.69;;;7.69;;
73154;SDS011;61364;52.418;7.382;2022-09-12T12:34:43;7.21;;;7.21;;
73154;SDS011;61364;52.418;7.382;2022-09-12T12:45:03;6.61;;;6.61;;
73154;SDS011;61364;52.418;7.382;2022-09-12T12:48:10;6.78;;;6.78;;
73154;SDS011;61364;52.418;7.382;2022-09-12T12:50:36;6.87;;;6.87;;
73154;SDS011;61364;52.418;7.382;2022-09-12T12:58:01;5.81;;;5.81;;
73154;SDS011;61364;52.418;7.382;2022-09-12T13:00:38;5.52;;;5.52;;
73154;SDS011;61364;52.418;7.382;2022-09-12T13:05:41;5.48;;;5.48;;
73154;SDS011;61364;52.418;7.382;2022-09-12T13:08:22;5.66;;;5.66;;
73154;SDS011;61364;52.418;7.382;2022-09-12T13:10:56;5.71;;;5.71;;
73154;SDS011;61364;52.418;7.382;2022-09-12T13:13:41;5.61;;;5.61;;
73154;SDS011;61364;52.418;7.382;2022-09-12T13:16:15;5.58;;;5.58;;
73154;SDS011;61364;52.418;7.382;2022-09-12T13:18:53;5.42;;;5.42;;
73154;SDS011;61364;52.418;7.382;2022-09-12T13:21:20;4.95;;;4.95;;
73154;SDS011;61364;52.418;7.382;2022-09-12T13:24:00;4.62;;;4.62;;
73154;SDS011;61364;52.418;7.382;2022-09-12T13:26:27;4.91;;;4.91;;
73154;SDS011;61364;52.418;7.382;2022-09-12T13:29:09;4.57;;;4.57;;
73154;SDS011;61364;52.418;7.382;2022-09-12T13:31:35;4.73;;;4.73;;
73154;SDS011;61364;52.418;7.382;2022-09-12T13:34:03;4.53;;;4.53;;
73154;SDS011;61364;52.418;7.382;2022-09-12T13:39:12;4.42;;;4.42;;
73154;SDS011;61364;52.418;7.382;2022-09-12T13:44:21;4.14;;;4.14;;
73154;SDS011;61364;52.418;7.382;2022-09-12T13:46:49;4.19;;;4.19;;
73154;SDS011;61364;52.418;7.382;2022-09-12T13:49:20;4.16;;;4.16;;
73154;SDS011;61364;52.418;7.382;2022-09-12T13:51:59;4.05;;;4.05;;
73154;SDS011;61364;52.418;7.382;2022-09-12T13:54:27;4.26;;;4.26;;
73154;SDS011;61364;52.418;7.382;2022-09-12T13:56:55;4.25;;;4.25;;
73154;SDS011;61364;52.418;7.382;2022-09-12T13:59:20;4.66;;;4.66;;
73154;SDS011;61364;52.418;7.382;2022-09-12T14:01:46;4.33;;;4.33;;
73154;SDS011;61364;52.418;7.382;2022-09-12T14:04:17;5.27;;;5.27;;
73154;SDS011;61364;52.418;7.382;2022-09-12T14:07:07;5.08;;;5.08;;
73154;SDS011;61364;52.418;7.382;2022-09-12T14:09:37;4.82;;;4.82;;
73154;SDS011;61364;52.418;7.382;2022-09-12T14:12:05;4.54;;;4.54;;
73154;SDS011;61364;52.418;7.382;2022-09-12T14:14:42;4.38;;;4.38;;
73154;SDS011;61364;52.418;7.382;2022-09-12T14:17:22;4.63;;;4.63;;
73154;SDS011;61364;52.418;7.382;2022-09-12T14:19:50;4.56;;;4.56;;
73154;SDS011;61364;52.418;7.382;2022-09-12T14:22:17;4.55;;;4.55;;
73154;SDS011;61364;52.418;7.382;2022-09-12T14:24:46;4.65;;;4.65;;
73154;SDS011;61364;52.418;7.382;2022-09-12T14:27:18;4.71;;;4.71;;
73154;SDS011;61364;52.418;7.382;2022-09-12T14:29:48;4.66;;;4.66;;
73154;SDS011;61364;52.418;7.382;2022-09-12T14:32:22;4.71;;;4.71;;
73154;SDS011;61364;52.418;7.382;2022-09-12T14:37:33;5.22;;;5.22;;
73154;SDS011;61364;52.418;7.382;2022-09-12T14:39:58;5.54;;;5.54;;
73154;SDS011;61364;52.418;7.382;2022-09-12T14:42:25;5.54;;;5.54;;
73154;SDS011;61364;52.418;7.382;2022-09-12T14:47:21;5.71;;;5.71;;
73154;SDS011;61364;52.418;7.382;2022-09-12T14:49:49;6.11;;;6.11;;
73154;SDS011;61364;52.418;7.382;2022-09-12T14:52:33;6.18;;;6.18;;
73154;SDS011;61364;52.418;7.382;2022-09-12T14:55:03;5.91;;;5.91;;
73154;SDS011;61364;52.418;7.382;2022-09-12T14:57:44;5.42;;;5.42;;
73154;SDS011;61364;52.418;7.382;2022-09-12T15:02:37;5.47;;;5.47;;
73154;SDS011;61364;52.418;7.382;2022-09-12T15:09:54;5.35;;;5.35;;
73154;SDS011;61364;52.418;7.382;2022-09-12T15:12:21;5.37;;;5.37;;
73154;SDS011;61364;52.418;7.382;2022-09-12T15:14:47;5.23;;;5.23;;
73154;SDS011;61364;52.418;7.382;2022-09-12T15:17:12;5.44;;;5.44;;
73154;SDS011;61364;52.418;7.382;2022-09-12T15:19:37;5.41;;;5.41;;
73154;SDS011;61364;52.418;7.382;2022-09-12T15:22:03;5.34;;;5.34;;
73154;SDS011;61364;52.418;7.382;2022-09-12T15:24:29;5.07;;;5.07;;
73154;SDS011;61364;52.418;7.382;2022-09-12T15:26:54;5.23;;;5.23;;
73154;SDS011;61364;52.418;7.382;2022-09-12T15:29:20;5.28;;;5.28;;
73154;SDS011;61364;52.418;7.382;2022-09-12T15:31:45;5.39;;;5.39;;
73154;SDS011;61364;52.418;7.382;2022-09-12T15:34:12;5.52;;;5.52;;
73154;SDS011;61364;52.418;7.382;2022-09-12T15:36:37;5.64;;;5.64;;
73154;SDS011;61364;52.418;7.382;2022-09-12T15:39:03;5.32;;;5.32;;
73154;SDS011;61364;52.418;7.382;2022-09-12T15:41:30;5.12;;;5.12;;
73154;SDS011;61364;52.418;7.382;2022-09-12T15:43:57;5.52;;;5.52;;
73154;SDS011;61364;52.418;7.382;2022-09-12T15:46:22;5.93;;;5.93;;
73154;SDS011;61364;52.418;7.382;2022-09-12T15:48:48;5.52;;;5.52;;
73154;SDS011;61364;52.418;7.382;2022-09-12T15:51:18;5.24;;;5.24;;
73154;SDS011;61364;52.418;7.382;2022-09-12T15:53:44;5.48;;;5.48;;
73154;SDS011;61364;52.418;7.382;2022-09-12T15:56:12;5.19;;;5.19;;
73154;SDS011;61364;52.418;7.382;2022-09-12T15:58:38;5.00;;;5.00;;
73154;SDS011;61364;52.418;7.382;2022-09-12T16:01:03;4.98;;;4.98;;
73154;SDS011;61364;52.418;7.382;2022-09-12T16:03:30;4.99;;;4.99;;
73154;SDS011;61364;52.418;7.382;2022-09-12T16:05:56;5.09;;;5.09;;
73154;SDS011;61364;52.418;7.382;2022-09-12T16:08:23;5.01;;;5.01;;
73154;SDS011;61364;52.418;7.382;2022-09-12T16:10:52;5.12;;;5.12;;
73154;SDS011;61364;52.418;7.382;2022-09-12T16:13:18;5.37;;;5.37;;
73154;SDS011;61364;52.418;7.382;2022-09-12T16:15:44;5.35;;;5.35;;
73154;SDS011;61364;52.418;7.382;2022-09-12T16:18:09;5.00;;;5.00;;
73154;SDS011;61364;52.418;7.382;2022-09-12T16:20:37;5.21;;;5.21;;
73154;SDS011;61364;52.418;7.382;2022-09-12T16:23:03;4.84;;;4.84;;
73154;SDS011;61364;52.418;7.382;2022-09-12T16:25:29;4.86;;;4.86;;
73154;SDS011;61364;52.418;7.382;2022-09-12T16:27:55;5.06;;;5.06;;
73154;SDS011;61364;52.418;7.382;2022-09-12T16:30:21;4.77;;;4.77;;
73154;SDS011;61364;52.418;7.382;2022-09-12T16:32:46;4.88;;;4.88;;
73154;SDS011;61364;52.418;7.382;2022-09-12T16:35:12;5.19;;;5.19;;
73154;SDS011;61364;52.418;7.382;2022-09-12T16:37:37;5.00;;;5.00;;
73154;SDS011;61364;52.418;7.382;2022-09-12T16:40:03;4.48;;;4.48;;
73154;SDS011;61364;52.418;7.382;2022-09-12T16:42:29;4.49;;;4.49;;
73154;SDS011;61364;52.418;7.382;2022-09-12T16:44:55;4.65;;;4.65;;
73154;SDS011;61364;52.418;7.382;2022-09-12T16:47:20;4.98;;;4.98;;
73154;SDS011;61364;52.418;7.382;2022-09-12T16:49:47;5.20;;;5.20;;
73154;SDS011;61364;52.418;7.382;2022-09-12T16:52:12;5.05;;;5.05;;
73154;SDS011;61364;52.418;7.382;2022-09-12T16:54:41;4.69;;;4.69;;
73154;SDS011;61364;52.418;7.382;2022-09-12T16:57:06;4.56;;;4.56;;
73154;SDS011;61364;52.418;7.382;2022-09-12T16:59:32;4.90;;;4.90;;
73154;SDS011;61364;52.418;7.382;2022-09-12T17:02:00;4.60;;;4.60;;
73154;SDS011;61364;52.418;7.382;2022-09-12T17:04:25;4.30;;;4.30;;
73154;SDS011;61364;52.418;7.382;2022-09-12T17:06:51;4.81;;;4.81;;